createdAt,value
2018-08-31T00:02:38.104Z,90.60
2018-08-31T00:05:53.198Z,90.50
2018-08-31T00:08:33.007Z,90.40
2018-08-31T00:11:49.794Z,90.10
2018-08-31T00:14:17.852Z,89.90
2018-08-31T00:16:45.951Z,89.70
2018-08-31T00:19:14.820Z,89.90
2018-08-31T00:21:43.808Z,89.70
2018-08-31T00:24:49.858Z,89.40
2018-08-31T00:27:56.602Z,89.10
2018-08-31T00:31:01.019Z,88.90
2018-08-31T00:34:15.738Z,88.60
2018-08-31T00:37:30.935Z,88.30
2018-08-31T00:40:09.383Z,88.40
2018-08-31T00:43:13.915Z,88.40
2018-08-31T00:45:42.436Z,88.60
2018-08-31T00:48:10.604Z,89.00
2018-08-31T00:50:38.727Z,88.70
2018-08-31T00:53:07.489Z,88.30
2018-08-31T00:55:35.676Z,88.30
2018-08-31T00:58:03.990Z,88.20
2018-08-31T01:00:32.066Z,88.20
2018-08-31T01:03:00.176Z,87.50
2018-08-31T01:05:29.660Z,88.10
2018-08-31T01:07:57.801Z,88.10
2018-08-31T01:10:26.025Z,87.90
2018-08-31T01:12:54.733Z,88.00
2018-08-31T01:15:22.828Z,88.00
2018-08-31T01:17:50.921Z,87.90
2018-08-31T01:20:19.053Z,88.20
2018-08-31T01:22:47.155Z,87.90
2018-08-31T01:25:15.263Z,88.30
2018-08-31T01:27:43.361Z,88.00
2018-08-31T01:30:11.843Z,88.20
2018-08-31T01:32:39.988Z,88.20
2018-08-31T01:35:08.127Z,88.20
2018-08-31T01:37:37.023Z,88.20
2018-08-31T01:40:05.508Z,88.00
2018-08-31T01:42:34.338Z,88.10
2018-08-31T01:45:02.529Z,88.00
2018-08-31T01:47:30.661Z,88.00
2018-08-31T01:49:59.011Z,88.40
2018-08-31T01:52:27.112Z,88.30
2018-08-31T01:54:57.715Z,88.20
2018-08-31T01:57:28.346Z,87.80
2018-08-31T01:59:56.757Z,88.00
2018-08-31T02:02:25.101Z,88.00
2018-08-31T02:04:53.920Z,88.30
2018-08-31T02:07:22.035Z,87.70
2018-08-31T02:09:50.141Z,87.60
2018-08-31T02:12:18.471Z,87.80
2018-08-31T02:14:46.602Z,87.80
2018-08-31T02:17:14.793Z,87.80
2018-08-31T02:19:45.187Z,88.00
2018-08-31T02:22:13.675Z,88.40
2018-08-31T02:24:41.811Z,88.10
2018-08-31T02:27:09.881Z,88.10
2018-08-31T02:29:38.019Z,88.20
2018-08-31T02:32:06.697Z,87.60
2018-08-31T02:34:34.908Z,88.10
2018-08-31T02:37:05.541Z,88.40
2018-08-31T02:39:33.681Z,88.30
2018-08-31T02:42:02.110Z,88.10
2018-08-31T02:44:30.231Z,88.20
2018-08-31T02:46:58.377Z,88.50
2018-08-31T02:49:26.984Z,88.50
2018-08-31T02:51:57.445Z,88.60
2018-08-31T02:54:25.584Z,89.00
2018-08-31T02:56:53.689Z,89.20
2018-08-31T02:59:24.829Z,89.00
2018-08-31T03:01:53.188Z,88.50
2018-08-31T03:04:21.284Z,88.60
2018-08-31T03:06:49.394Z,88.70
2018-08-31T03:09:19.721Z,88.90
2018-08-31T03:11:47.825Z,88.70
2018-08-31T03:14:15.960Z,88.70
2018-08-31T03:16:44.043Z,89.00
2018-08-31T03:19:12.461Z,88.50
2018-08-31T03:21:43.056Z,88.40
2018-08-31T03:24:12.205Z,88.80
2018-08-31T03:26:40.310Z,88.70
2018-08-31T03:29:08.700Z,88.60
2018-08-31T03:31:36.810Z,88.70
2018-08-31T03:34:06.646Z,88.90
2018-08-31T03:36:35.945Z,89.20
2018-08-31T03:39:07.565Z,89.60
2018-08-31T03:41:36.012Z,89.60
2018-08-31T03:44:07.635Z,89.50
2018-08-31T03:46:35.760Z,89.50
2018-08-31T03:49:03.879Z,89.50
2018-08-31T03:51:32.228Z,89.50
2018-08-31T03:54:00.389Z,89.00
2018-08-31T03:56:28.597Z,88.70
2018-08-31T03:58:56.700Z,88.70
2018-08-31T04:01:24.881Z,88.20
2018-08-31T04:03:56.053Z,88.30
2018-08-31T04:06:24.356Z,88.50
2018-08-31T04:08:53.824Z,88.40
2018-08-31T04:11:24.585Z,88.50
2018-08-31T04:13:52.721Z,88.50
2018-08-31T04:16:22.826Z,88.50
2018-08-31T04:18:52.943Z,89.10
2018-08-31T04:21:21.067Z,89.00
2018-08-31T04:23:49.227Z,89.40
2018-08-31T04:26:18.396Z,89.50
2018-08-31T04:28:46.607Z,89.30
2018-08-31T04:31:14.722Z,89.00
2018-08-31T04:33:42.844Z,89.20
2018-08-31T04:36:12.438Z,89.90
2018-08-31T04:38:42.283Z,89.70
2018-08-31T04:41:10.451Z,89.40
2018-08-31T04:43:38.878Z,89.50
2018-08-31T04:46:06.976Z,89.30
2018-08-31T04:48:36.215Z,89.00
2018-08-31T04:51:06.950Z,88.00
2018-08-31T04:53:35.071Z,87.90
2018-08-31T04:56:03.175Z,87.70
2018-08-31T04:58:31.314Z,87.60
2018-08-31T05:00:59.779Z,88.10
2018-08-31T05:03:28.271Z,87.90
2018-08-31T05:05:58.141Z,87.90
2018-08-31T05:08:26.263Z,87.30
2018-08-31T05:10:54.354Z,87.00
2018-08-31T05:13:22.764Z,86.90
2018-08-31T05:15:50.897Z,87.00
2018-08-31T05:18:19.274Z,87.60
2018-08-31T05:20:47.402Z,87.50
2018-08-31T05:23:15.791Z,88.00
2018-08-31T05:25:44.190Z,88.50
2018-08-31T05:28:12.408Z,87.70
2018-08-31T05:30:40.570Z,87.80
2018-08-31T05:33:11.436Z,88.00
2018-08-31T05:35:39.611Z,87.50
2018-08-31T05:38:09.815Z,87.20
2018-08-31T05:40:41.357Z,87.20
2018-08-31T05:43:09.458Z,87.70
2018-08-31T05:45:37.809Z,87.20
2018-08-31T05:48:05.981Z,87.50
2018-08-31T05:50:35.515Z,87.10
2018-08-31T05:53:03.871Z,87.00
2018-08-31T05:55:32.271Z,86.50
2018-08-31T05:58:00.908Z,86.40
2018-08-31T06:00:31.277Z,86.10
2018-08-31T06:02:59.406Z,85.60
2018-08-31T06:09:01.239Z,85.00
2018-08-31T06:11:32.505Z,83.40
2018-08-31T06:14:05.513Z,81.30
2018-08-31T06:16:48.927Z,81.00
2018-08-31T06:19:18.870Z,81.30
2018-08-31T06:21:48.373Z,82.80
2018-08-31T06:24:37.164Z,84.00
2018-08-31T06:27:06.788Z,84.50
2018-08-31T06:29:35.159Z,83.90
2018-08-31T06:32:06.530Z,84.20
2018-08-31T06:34:36.201Z,84.90
2018-08-31T06:37:13.934Z,84.70
2018-08-31T06:39:42.091Z,84.30
2018-08-31T06:48:58.245Z,80.60
2018-08-31T06:51:26.759Z,81.40
2018-08-31T06:53:55.729Z,78.90
2018-08-31T06:56:26.802Z,72.80
2018-08-31T06:58:55.268Z,71.20
2018-08-31T07:01:25.312Z,71.70
2018-08-31T07:03:53.565Z,73.30
2018-08-31T07:06:22.915Z,76.30
2018-08-31T07:08:58.030Z,76.80
2018-08-31T07:11:34.958Z,78.20
2018-08-31T07:14:05.311Z,79.40
2018-08-31T07:16:33.755Z,79.90
2018-08-31T07:19:06.775Z,81.90
2018-08-31T07:21:37.969Z,82.70
2018-08-31T07:24:06.926Z,82.70
2018-08-31T07:26:36.676Z,81.30
2018-08-31T07:29:05.097Z,81.70
2018-08-31T07:31:36.667Z,81.90
2018-08-31T07:34:20.980Z,81.00
2018-08-31T07:36:52.302Z,81.30
2018-08-31T07:41:55.783Z,91.80
2018-08-31T07:44:23.825Z,76.00
2018-08-31T07:46:52.219Z,70.20
2018-08-31T07:49:20.261Z,67.70
2018-08-31T07:51:48.367Z,64.50
2018-08-31T07:54:16.473Z,63.00
2018-08-31T07:56:44.552Z,61.20
2018-08-31T07:59:12.668Z,59.70
2018-08-31T08:01:40.748Z,58.90
2018-08-31T08:04:08.838Z,59.40
2018-08-31T08:06:36.912Z,58.90
2018-08-31T08:09:06.952Z,58.70
2018-08-31T08:11:35.744Z,58.50
2018-08-31T08:14:03.817Z,58.10
2018-08-31T08:16:31.986Z,57.40
2018-08-31T08:19:00.047Z,57.30
2018-08-31T08:21:28.574Z,57.10
2018-08-31T08:23:56.643Z,56.70
2018-08-31T08:26:27.380Z,56.60
2018-08-31T08:28:55.440Z,56.50
2018-08-31T08:31:23.520Z,56.20
2018-08-31T08:33:51.591Z,55.90
2018-08-31T08:36:19.666Z,56.10
2018-08-31T08:38:47.748Z,55.80
2018-08-31T08:41:16.104Z,55.40
2018-08-31T08:43:44.190Z,55.80
2018-08-31T08:46:12.275Z,55.80
2018-08-31T08:48:40.392Z,56.00
2018-08-31T08:51:08.508Z,57.20
2018-08-31T08:53:36.620Z,57.40
2018-08-31T08:56:04.870Z,56.70
2018-08-31T08:58:32.963Z,56.80
2018-08-31T09:01:01.048Z,56.90
2018-08-31T09:03:29.138Z,56.40
2018-08-31T09:05:57.494Z,56.10
2018-08-31T09:08:25.574Z,56.70
2018-08-31T09:10:53.688Z,56.80
2018-08-31T09:13:21.811Z,56.70
2018-08-31T09:15:49.908Z,56.90
2018-08-31T09:18:22.922Z,57.50
2018-08-31T09:20:51.163Z,57.60
2018-08-31T09:23:19.241Z,57.50
2018-08-31T09:25:47.328Z,56.80
2018-08-31T09:28:15.409Z,56.60
2018-08-31T09:30:46.873Z,56.50
2018-08-31T09:33:16.757Z,56.70
2018-08-31T09:35:44.861Z,56.60
2018-08-31T09:38:12.990Z,56.80
2018-08-31T09:40:41.029Z,56.50
2018-08-31T09:43:09.618Z,56.50
2018-08-31T09:45:37.679Z,56.20
2018-08-31T09:48:06.149Z,55.70
2018-08-31T09:50:34.346Z,56.00
2018-08-31T09:53:02.406Z,56.10
2018-08-31T09:55:30.494Z,56.00
2018-08-31T09:57:58.933Z,55.80
2018-08-31T10:00:44.802Z,55.80
2018-08-31T10:03:25.686Z,56.00
2018-08-31T10:05:54.729Z,55.90
2018-08-31T10:08:24.342Z,56.00
2018-08-31T10:10:52.472Z,55.80
2018-08-31T10:13:20.578Z,56.00
2018-08-31T10:15:48.609Z,55.60
2018-08-31T10:18:16.680Z,55.40
2018-08-31T10:20:44.874Z,55.60
2018-08-31T10:23:12.957Z,55.30
2018-08-31T10:25:41.044Z,55.40
2018-08-31T10:28:09.115Z,55.10
2018-08-31T10:30:37.182Z,55.20
2018-08-31T10:33:05.397Z,55.00
2018-08-31T10:35:33.468Z,55.30
2018-08-31T10:38:01.638Z,56.10
2018-08-31T10:40:29.709Z,56.90
2018-08-31T10:42:58.113Z,56.90
2018-08-31T10:45:27.856Z,56.70
2018-08-31T10:47:56.291Z,56.70
2018-08-31T10:50:25.018Z,57.50
2018-08-31T10:52:53.459Z,57.20
2018-08-31T10:55:23.702Z,57.40
2018-08-31T10:57:52.580Z,57.70
2018-08-31T11:00:24.253Z,57.80
2018-08-31T11:02:55.238Z,57.90
2018-08-31T11:05:23.860Z,57.70
2018-08-31T11:07:52.683Z,57.90
2018-08-31T11:10:21.233Z,57.90
2018-08-31T11:12:52.001Z,58.20
2018-08-31T11:15:20.129Z,58.10
2018-08-31T11:17:48.185Z,59.00
2018-08-31T11:20:16.293Z,57.90
2018-08-31T11:22:44.377Z,57.40
2018-08-31T11:25:12.465Z,57.20
2018-08-31T11:27:40.686Z,57.30
2018-08-31T11:30:09.416Z,57.50
2018-08-31T11:32:37.542Z,59.80
2018-08-31T11:35:05.671Z,56.80
2018-08-31T11:37:33.751Z,56.00
2018-08-31T11:40:01.846Z,56.30
2018-08-31T11:42:29.943Z,55.70
2018-08-31T11:44:58.308Z,55.40
2018-08-31T11:47:26.424Z,55.20
2018-08-31T11:49:54.509Z,55.00
2018-08-31T11:52:22.626Z,55.20
2018-08-31T11:54:50.726Z,54.50
2018-08-31T11:57:18.850Z,54.40
2018-08-31T11:59:46.947Z,55.10
2018-08-31T12:02:15.037Z,54.50
2018-08-31T12:04:43.111Z,55.00
2018-08-31T12:07:11.177Z,54.20
2018-08-31T12:09:39.266Z,53.80
2018-08-31T12:12:07.322Z,53.80
2018-08-31T12:14:35.422Z,54.00
2018-08-31T12:17:03.524Z,53.80
2018-08-31T12:19:31.608Z,53.90
2018-08-31T12:21:59.700Z,52.90
2018-08-31T12:24:27.796Z,53.00
2018-08-31T12:26:56.562Z,53.60
2018-08-31T12:29:24.668Z,53.70
2018-08-31T12:31:52.757Z,53.20
2018-08-31T12:34:20.821Z,54.50
2018-08-31T12:36:48.914Z,53.10
2018-08-31T12:39:16.981Z,53.20
2018-08-31T12:41:45.076Z,53.50
2018-08-31T12:44:13.248Z,53.50
2018-08-31T12:46:41.267Z,53.70
2018-08-31T12:49:09.332Z,53.20
2018-08-31T12:51:37.439Z,54.10
2018-08-31T12:54:05.518Z,55.30
2018-08-31T12:56:33.619Z,53.90
2018-08-31T12:59:01.715Z,53.70
2018-08-31T13:01:29.819Z,53.70
2018-08-31T13:03:58.441Z,53.70
2018-08-31T13:06:26.520Z,54.30
2018-08-31T13:08:54.668Z,53.90
2018-08-31T13:11:22.942Z,54.20
2018-08-31T13:13:51.073Z,54.10
2018-08-31T13:16:19.554Z,54.70
2018-08-31T13:18:49.075Z,54.60
2018-08-31T13:21:17.492Z,54.20
2018-08-31T13:23:45.947Z,54.60
2018-08-31T13:26:14.335Z,54.80
2018-08-31T13:28:43.859Z,55.20
2018-08-31T13:31:12.098Z,55.30
2018-08-31T13:33:40.428Z,53.80
2018-08-31T13:36:11.167Z,53.80
2018-08-31T13:38:39.978Z,53.90
2018-08-31T13:41:08.056Z,54.90
2018-08-31T13:43:36.142Z,54.50
2018-08-31T13:46:04.575Z,54.10
2018-08-31T13:48:32.626Z,55.10
2018-08-31T13:51:00.720Z,53.40
2018-08-31T13:53:28.800Z,53.60
2018-08-31T13:55:56.880Z,53.40
2018-08-31T13:58:25.023Z,53.20
2018-08-31T14:00:53.040Z,53.30
2018-08-31T14:03:21.150Z,53.00
2018-08-31T14:05:49.223Z,52.80
2018-08-31T14:08:17.293Z,52.00
2018-08-31T14:10:45.350Z,51.90
2018-08-31T14:13:13.458Z,52.50
2018-08-31T14:15:41.553Z,52.40
2018-08-31T14:18:09.674Z,52.60
2018-08-31T14:20:37.781Z,52.30
2018-08-31T14:23:05.862Z,53.90
2018-08-31T14:25:33.955Z,53.20
2018-08-31T14:28:02.054Z,54.00
2018-08-31T14:30:30.141Z,53.70
2018-08-31T14:32:58.233Z,53.60
2018-08-31T14:35:26.318Z,53.70
2018-08-31T14:37:54.390Z,54.10
2018-08-31T14:40:22.479Z,53.70
2018-08-31T14:42:50.594Z,53.40
2018-08-31T14:45:18.666Z,53.70
2018-08-31T14:47:46.754Z,53.00
2018-08-31T14:50:14.814Z,52.70
2018-08-31T14:52:42.896Z,52.50
2018-08-31T14:55:10.997Z,52.70
2018-08-31T14:57:39.086Z,53.00
2018-08-31T15:00:07.218Z,53.30
2018-08-31T15:02:35.395Z,53.60
2018-08-31T15:05:03.468Z,53.40
2018-08-31T15:07:31.562Z,53.80
2018-08-31T15:09:59.682Z,53.30
2018-08-31T15:12:27.772Z,53.30
2018-08-31T15:14:55.882Z,54.00
2018-08-31T15:17:23.950Z,53.60
2018-08-31T15:19:52.096Z,53.40
2018-08-31T15:22:20.158Z,53.10
2018-08-31T15:24:48.288Z,52.70
2018-08-31T15:27:16.360Z,52.80
2018-08-31T15:29:44.472Z,53.20
2018-08-31T15:32:12.609Z,52.70
2018-08-31T15:34:40.728Z,52.30
2018-08-31T15:37:08.836Z,52.20
2018-08-31T15:39:37.083Z,52.30
2018-08-31T15:42:06.023Z,52.40
2018-08-31T15:44:36.007Z,51.10
2018-08-31T15:47:06.262Z,51.70
2018-08-31T15:49:37.574Z,51.90
2018-08-31T15:52:06.079Z,51.80
2018-08-31T15:55:01.566Z,51.80
2018-08-31T15:57:31.143Z,51.20
2018-08-31T16:00:05.203Z,51.30
2018-08-31T16:02:40.366Z,51.00
2018-08-31T16:05:08.794Z,51.10
2018-08-31T16:07:39.399Z,50.70
2018-08-31T16:10:13.026Z,50.90
2018-08-31T16:12:46.186Z,50.50
2018-08-31T16:15:19.903Z,50.80
2018-08-31T16:17:56.246Z,50.40
2018-08-31T16:20:35.987Z,50.20
2018-08-31T16:23:07.215Z,50.40
2018-08-31T16:25:31.577Z,50.20
2018-08-31T16:28:03.501Z,50.10
2018-08-31T16:30:32.121Z,50.10
2018-08-31T16:33:00.616Z,50.20
2018-08-31T16:35:32.238Z,49.80
2018-08-31T16:38:06.469Z,49.50
2018-08-31T16:40:51.477Z,48.90
2018-08-31T16:43:22.896Z,48.10
2018-08-31T16:45:54.182Z,48.60
2018-08-31T16:51:18.297Z,48.80
2018-08-31T16:53:52.750Z,49.00
2018-08-31T16:56:21.379Z,50.10
2018-08-31T16:58:49.849Z,49.50
2018-08-31T17:01:18.262Z,49.70
2018-08-31T17:03:46.937Z,48.90
2018-08-31T17:06:16.541Z,49.10
2018-08-31T17:08:44.971Z,49.00
2018-08-31T17:11:13.716Z,49.10
2018-08-31T17:13:42.274Z,49.20
2018-08-31T17:16:11.762Z,49.20
2018-08-31T17:18:40.650Z,49.10
2018-08-31T17:21:10.375Z,49.10
2018-08-31T17:23:38.959Z,48.90
2018-08-31T17:26:11.206Z,49.40
2018-08-31T17:28:57.388Z,49.60
2018-08-31T17:31:44.573Z,49.50
2018-08-31T17:34:30.729Z,49.50
2018-08-31T17:37:17.349Z,49.30
2018-08-31T17:39:45.795Z,50.40
2018-08-31T17:42:17.620Z,49.40
2018-08-31T17:44:46.183Z,49.80
2018-08-31T17:47:19.626Z,50.20
2018-08-31T17:49:51.038Z,49.80
2018-08-31T17:52:19.375Z,49.70
2018-08-31T17:54:48.187Z,49.00
2018-08-31T17:57:16.265Z,48.90
2018-08-31T17:59:44.508Z,48.70
2018-08-31T18:02:12.718Z,48.80
2018-08-31T18:04:42.000Z,49.00
2018-08-31T18:07:12.812Z,49.00
2018-08-31T18:09:42.195Z,48.80
2018-08-31T18:12:12.568Z,49.10
2018-08-31T18:14:40.859Z,49.30
2018-08-31T18:17:11.428Z,49.30
2018-08-31T18:19:40.523Z,49.60
2018-08-31T18:22:08.918Z,49.60
2018-08-31T18:24:37.339Z,49.50
2018-08-31T18:27:05.808Z,50.00
2018-08-31T18:29:36.175Z,49.80
2018-08-31T18:32:05.238Z,50.00
2018-08-31T18:34:34.279Z,49.60
2018-08-31T18:37:02.675Z,49.20
2018-08-31T18:39:31.127Z,50.10
2018-08-31T18:41:59.517Z,50.10
2018-08-31T18:44:29.039Z,50.60
2018-08-31T18:46:57.491Z,50.30
2018-08-31T18:49:25.951Z,50.00
2018-08-31T18:51:54.602Z,50.60
2018-08-31T18:54:24.028Z,50.60
2018-08-31T18:56:55.031Z,50.10
2018-08-31T18:59:23.454Z,50.00
2018-08-31T19:01:52.059Z,49.50
2018-08-31T19:04:20.509Z,49.40
2018-08-31T19:06:50.832Z,49.80
2018-08-31T19:09:19.179Z,49.40
2018-08-31T19:11:47.425Z,50.00
2018-08-31T19:14:16.066Z,49.10
2018-08-31T19:16:45.529Z,50.10
2018-08-31T19:19:13.933Z,49.80
2018-08-31T19:21:42.005Z,49.80
2018-08-31T19:24:11.592Z,50.10
2018-08-31T19:26:39.745Z,49.70
2018-08-31T19:29:07.831Z,49.60
2018-08-31T19:31:35.972Z,49.90
2018-08-31T19:34:04.107Z,49.90
2018-08-31T19:36:32.195Z,50.60
2018-08-31T19:39:00.297Z,51.80
2018-08-31T19:41:28.417Z,52.10
2018-08-31T19:43:58.411Z,52.00
2018-08-31T19:46:24.555Z,52.10
2018-08-31T19:48:52.662Z,51.80
2018-08-31T19:51:20.732Z,52.20
2018-08-31T19:53:48.972Z,52.60
2018-08-31T19:56:16.960Z,52.30
2018-08-31T19:58:45.061Z,51.90
2018-08-31T20:01:13.293Z,51.90
2018-08-31T20:03:41.659Z,51.80
2018-08-31T20:06:09.793Z,51.40
2018-08-31T20:08:37.972Z,51.00
2018-08-31T20:11:06.047Z,50.90
2018-08-31T20:13:34.234Z,50.70
2018-08-31T20:16:55.429Z,49.90
2018-08-31T20:19:23.562Z,50.50
2018-08-31T20:21:51.938Z,50.60
2018-08-31T20:24:20.107Z,51.20
2018-08-31T20:26:48.246Z,51.30
2018-08-31T20:29:16.370Z,51.70
2018-08-31T20:31:44.586Z,51.60
2018-08-31T20:34:14.665Z,52.10
2018-08-31T20:36:42.789Z,52.00
2018-08-31T20:39:12.033Z,51.80
2018-08-31T20:41:40.195Z,51.70
2018-08-31T20:44:08.590Z,51.10
2018-08-31T20:46:36.739Z,51.00
2018-08-31T20:49:05.314Z,51.10
2018-08-31T20:51:33.414Z,51.20
2018-08-31T20:54:01.521Z,51.60
2018-08-31T20:56:29.637Z,51.60
2018-08-31T20:58:57.788Z,51.80
2018-08-31T21:01:25.931Z,51.90
2018-08-31T21:03:54.039Z,51.90
2018-08-31T21:06:22.145Z,51.90
2018-08-31T21:08:52.344Z,51.80
2018-08-31T21:11:20.449Z,52.00
2018-08-31T21:13:48.625Z,52.00
2018-08-31T21:16:16.722Z,51.70
2018-08-31T21:18:44.855Z,51.70
2018-08-31T21:21:13.039Z,51.80
2018-08-31T21:23:41.286Z,51.80
2018-08-31T21:26:09.413Z,51.50
2018-08-31T21:28:37.523Z,51.50
2018-08-31T21:31:05.912Z,51.80
2018-08-31T21:33:34.036Z,51.80
2018-08-31T21:36:02.144Z,51.80
2018-08-31T21:38:30.286Z,51.30
2018-08-31T21:40:59.532Z,51.80
2018-08-31T21:43:27.645Z,51.70
2018-08-31T21:45:55.777Z,51.50
2018-08-31T21:48:23.895Z,51.20
2018-08-31T21:50:52.021Z,51.00
2018-08-31T21:53:22.221Z,50.90
2018-08-31T21:55:51.868Z,51.20
2018-08-31T21:58:19.994Z,50.90
2018-08-31T22:00:50.677Z,51.10
2018-08-31T22:03:18.798Z,51.20
2018-08-31T22:05:47.906Z,51.20
2018-08-31T22:08:17.022Z,51.30
2018-08-31T22:10:45.092Z,51.40
2018-08-31T22:13:13.232Z,51.40
2018-08-31T22:15:41.359Z,51.30
2018-08-31T22:18:09.619Z,51.30
2018-08-31T22:20:37.732Z,51.20
2018-08-31T22:23:05.854Z,51.10
2018-08-31T22:25:36.399Z,50.70
2018-08-31T22:28:04.546Z,50.40
2018-08-31T22:30:32.674Z,50.40
2018-08-31T22:33:00.800Z,50.50
2018-08-31T22:35:28.908Z,50.20
2018-08-31T22:37:57.079Z,50.50
2018-08-31T22:40:25.209Z,50.20
2018-08-31T22:42:53.353Z,50.40
